createdAt,value
2023-05-06T00:02:28.007Z,7.00
2023-05-06T00:07:29.827Z,7.20
2023-05-06T00:12:31.557Z,7.60
2023-05-06T00:17:33.170Z,6.50
2023-05-06T00:22:35.122Z,7.50
2023-05-06T00:27:36.862Z,7.30
2023-05-06T00:32:39.060Z,6.90
2023-05-06T00:37:40.859Z,6.90
2023-05-06T00:42:42.987Z,7.30
2023-05-06T00:47:45.030Z,7.50
2023-05-06T00:52:46.892Z,7.00
2023-05-06T00:57:51.921Z,6.40
2023-05-06T01:02:53.816Z,5.90
2023-05-06T01:08:03.142Z,6.10
2023-05-06T01:13:14.063Z,6.00
2023-05-06T01:18:17.592Z,6.20
2023-05-06T01:23:19.453Z,5.40
2023-05-06T01:28:21.202Z,6.80
2023-05-06T01:33:50.864Z,6.50
2023-05-06T01:39:05.007Z,5.40
2023-05-06T01:44:08.287Z,5.40
2023-05-06T01:49:11.643Z,5.30
2023-05-06T01:54:13.527Z,6.10
2023-05-06T01:59:15.254Z,5.00
2023-05-06T02:04:16.961Z,6.20
2023-05-06T02:09:18.801Z,6.40
2023-05-06T02:14:26.692Z,4.90
2023-05-06T02:19:29.357Z,5.60
2023-05-06T02:24:31.127Z,5.80
2023-05-06T02:29:32.774Z,6.90
2023-05-06T02:34:34.553Z,6.60
2023-05-06T02:39:36.258Z,6.60
2023-05-06T02:44:37.889Z,7.30
2023-05-06T02:49:39.621Z,6.90
2023-05-06T02:54:41.354Z,7.10
2023-05-06T02:59:43.003Z,6.90
2023-05-06T03:04:44.654Z,7.10
2023-05-06T03:09:46.358Z,6.60
2023-05-06T03:14:48.287Z,7.50
2023-05-06T03:19:50.633Z,6.80
2023-05-06T03:24:52.675Z,6.40
2023-05-06T03:29:54.926Z,7.30
2023-05-06T03:34:57.968Z,7.30
2023-05-06T03:40:00.779Z,7.30
2023-05-06T03:45:05.135Z,6.10
2023-05-06T03:50:08.006Z,6.70
2023-05-06T03:55:11.522Z,6.30
2023-05-06T04:00:15.023Z,7.00
2023-05-06T04:07:12.562Z,6.30
2023-05-06T04:12:14.451Z,6.70
2023-05-06T04:17:16.425Z,6.00
2023-05-06T04:22:18.774Z,5.70
2023-05-06T04:27:21.193Z,5.90
2023-05-06T04:32:26.489Z,5.60
2023-05-06T04:37:29.137Z,5.30
2023-05-06T04:42:42.170Z,5.60
2023-05-06T04:47:48.752Z,4.90
2023-05-06T04:52:51.979Z,5.30
2023-05-06T04:57:54.158Z,5.40
2023-05-06T05:02:56.130Z,5.70
2023-05-06T05:08:06.568Z,5.90
2023-05-06T05:13:10.166Z,5.00
2023-05-06T05:18:12.777Z,5.10
2023-05-06T05:23:14.800Z,5.00
2023-05-06T05:28:17.938Z,5.50
2023-05-06T05:33:20.266Z,5.20
2023-05-06T05:38:22.231Z,5.00
2023-05-06T05:43:25.986Z,4.30
2023-05-06T05:48:28.532Z,4.50
2023-05-06T05:53:31.411Z,4.60
2023-05-06T05:58:34.279Z,4.80
2023-05-06T06:03:36.372Z,5.20
2023-05-06T06:08:40.831Z,5.10
2023-05-06T06:13:43.062Z,5.60
2023-05-06T06:18:45.080Z,5.00
2023-05-06T06:23:47.147Z,5.40
2023-05-06T06:28:49.215Z,5.30
2023-05-06T06:33:51.036Z,5.80
2023-05-06T06:38:53.868Z,5.40
2023-05-06T06:43:55.848Z,5.20
2023-05-06T06:49:03.741Z,5.50
2023-05-06T06:54:05.574Z,6.10
2023-05-06T06:59:07.967Z,5.00
2023-05-06T07:04:09.729Z,4.90
2023-05-06T07:09:12.072Z,5.30
2023-05-06T07:14:13.911Z,5.00
2023-05-06T07:19:15.684Z,5.10
2023-05-06T07:24:17.307Z,5.10
2023-05-06T07:29:19.044Z,5.30
2023-05-06T07:34:20.762Z,5.60
2023-05-06T07:39:22.430Z,5.70
2023-05-06T07:44:24.132Z,5.70
2023-05-06T07:49:28.665Z,5.20
2023-05-06T07:54:31.789Z,5.40
2023-05-06T07:59:33.643Z,5.30
2023-05-06T08:04:35.904Z,6.60
2023-05-06T08:09:38.117Z,5.40
2023-05-06T08:14:39.779Z,4.70
2023-05-06T08:19:41.477Z,6.10
2023-05-06T08:24:43.497Z,5.50
2023-05-06T08:29:45.207Z,5.50
2023-05-06T08:34:46.893Z,5.40
2023-05-06T08:39:48.595Z,6.90
2023-05-06T08:44:52.239Z,6.70
2023-05-06T08:49:53.982Z,5.30
2023-05-06T08:55:01.342Z,4.80
2023-05-06T09:00:05.046Z,5.30
2023-05-06T09:05:10.096Z,4.90
2023-05-06T09:10:13.633Z,6.40
2023-05-06T09:15:15.357Z,6.90
2023-05-06T09:20:17.472Z,7.70
2023-05-06T09:25:19.236Z,8.90
2023-05-06T09:30:20.979Z,8.80
2023-05-06T09:35:28.108Z,9.70
2023-05-06T09:40:30.820Z,18.50
2023-05-06T09:45:33.199Z,12.20
2023-05-06T09:50:35.845Z,12.50
2023-05-06T09:55:38.468Z,10.40
2023-05-06T10:00:41.236Z,10.30
2023-05-06T10:05:43.127Z,9.00
2023-05-06T10:10:48.776Z,8.10
2023-05-06T10:15:51.250Z,8.60
2023-05-06T10:20:55.367Z,9.90
2023-05-06T10:26:01.168Z,11.10
2023-05-06T10:31:04.972Z,10.90
2023-05-06T10:36:27.902Z,9.70
2023-05-06T10:41:30.894Z,9.60
2023-05-06T10:46:33.020Z,9.10
2023-05-06T10:51:38.778Z,9.60
2023-05-06T10:57:10.992Z,9.70
2023-05-06T11:02:13.744Z,10.20
2023-05-06T11:07:21.753Z,12.40
2023-05-06T11:12:52.812Z,12.30
2023-05-06T11:17:57.129Z,11.80
2023-05-06T11:22:59.057Z,15.00
2023-05-06T11:28:01.578Z,14.30
2023-05-06T11:33:05.698Z,13.10
2023-05-06T11:38:07.755Z,14.10
2023-05-06T11:43:14.245Z,14.10
2023-05-06T11:48:17.504Z,24.90
2023-05-06T11:53:21.949Z,15.80
2023-05-06T11:58:26.497Z,13.70
2023-05-06T12:03:31.492Z,16.30
2023-05-06T12:08:35.962Z,23.50
2023-05-06T12:13:44.257Z,27.60
2023-05-06T12:18:46.061Z,117.30
2023-05-06T12:23:56.327Z,42.90
2023-05-06T12:29:06.925Z,49.80
2023-05-06T12:34:08.787Z,36.20
2023-05-06T12:39:11.770Z,39.60
2023-05-06T12:44:32.652Z,24.20
2023-05-06T12:50:00.657Z,22.30
2023-05-06T12:55:02.795Z,20.90
2023-05-06T13:00:07.428Z,19.10
2023-05-06T13:05:10.876Z,21.90
2023-05-06T13:10:12.804Z,23.90
2023-05-06T13:15:14.939Z,24.00
2023-05-06T13:20:18.446Z,25.30
2023-05-06T13:25:20.085Z,22.80
2023-05-06T13:30:21.777Z,21.60
2023-05-06T13:35:23.503Z,26.20
2023-05-06T13:40:25.210Z,23.50
2023-05-06T13:45:26.883Z,20.90
2023-05-06T13:50:28.612Z,21.40
2023-05-06T13:55:30.425Z,19.50
2023-05-06T14:00:32.939Z,19.80
2023-05-06T14:05:34.875Z,20.40
2023-05-06T14:10:36.544Z,18.50
2023-05-06T14:15:38.242Z,19.90
2023-05-06T14:20:40.146Z,19.50
2023-05-06T14:25:41.788Z,20.40
2023-05-06T14:30:44.273Z,21.90
2023-05-06T14:35:49.769Z,20.20
2023-05-06T14:40:53.016Z,20.30
2023-05-06T14:45:54.777Z,19.80
2023-05-06T14:50:56.563Z,18.60
2023-05-06T14:55:58.221Z,18.30
2023-05-06T15:00:59.997Z,19.30
2023-05-06T15:06:01.801Z,17.80
2023-05-06T15:11:04.259Z,17.50
2023-05-06T15:16:15.971Z,17.10
2023-05-06T15:21:17.686Z,18.60
2023-05-06T15:26:19.846Z,17.80
2023-05-06T15:31:21.566Z,19.10
2023-05-06T15:36:23.244Z,18.30
2023-05-06T15:41:31.441Z,18.40
2023-05-06T15:46:33.648Z,17.60
2023-05-06T15:51:35.426Z,20.70
2023-05-06T15:56:41.040Z,17.50
2023-05-06T16:02:24.892Z,17.10
2023-05-06T16:07:05.612Z,15.70
2023-05-06T16:12:07.414Z,19.80
2023-05-06T16:17:09.134Z,20.10
2023-05-06T16:22:10.961Z,20.90
2023-05-06T16:27:13.979Z,19.80
2023-05-06T16:32:15.733Z,23.10
2023-05-06T16:37:17.496Z,21.70
2023-05-06T16:42:19.163Z,20.20
2023-05-06T16:47:23.756Z,23.10
2023-05-06T16:52:25.593Z,19.10
2023-05-06T16:57:27.237Z,20.10
2023-05-06T17:02:29.047Z,15.60
2023-05-06T17:07:30.775Z,11.50
2023-05-06T17:12:32.904Z,14.00
2023-05-06T17:17:34.867Z,12.50
2023-05-06T17:27:38.894Z,12.90
2023-05-06T17:32:41.733Z,12.10
2023-05-06T17:37:43.402Z,13.50
2023-05-06T17:42:45.462Z,13.00
2023-05-06T17:47:47.195Z,14.30
2023-05-06T17:52:52.902Z,15.10
2023-05-06T17:57:54.672Z,16.10
2023-05-06T18:02:56.362Z,17.30
2023-05-06T18:07:58.491Z,16.40
2023-05-06T18:13:00.348Z,15.80
2023-05-06T18:18:02.286Z,16.50
2023-05-06T18:23:04.135Z,15.50
2023-05-06T18:28:06.078Z,19.30
2023-05-06T18:33:07.827Z,17.90
2023-05-06T18:38:11.032Z,18.90
2023-05-06T18:43:13.560Z,18.50
2023-05-06T18:48:16.141Z,18.80
2023-05-06T18:53:17.891Z,20.10
2023-05-06T18:58:19.701Z,20.20
2023-05-06T19:03:22.386Z,19.20
2023-05-06T19:08:24.077Z,21.90
2023-05-06T19:13:26.381Z,21.60
2023-05-06T19:18:28.119Z,20.50
2023-05-06T19:23:30.011Z,20.30
2023-05-06T19:28:31.844Z,20.10
2023-05-06T19:33:33.603Z,19.20
2023-05-06T19:38:35.434Z,20.40
2023-05-06T19:43:42.484Z,18.30
2023-05-06T19:48:45.594Z,17.00
2023-05-06T19:53:59.033Z,17.70
2023-05-06T19:59:00.754Z,15.30
2023-05-06T20:04:03.281Z,17.90
2023-05-06T20:09:05.039Z,16.20
2023-05-06T20:14:08.088Z,15.00
2023-05-06T20:19:09.759Z,15.50
2023-05-06T20:24:11.612Z,16.50
2023-05-06T20:29:13.333Z,17.40
2023-05-06T20:34:15.173Z,17.00
2023-05-06T20:39:16.912Z,17.00
2023-05-06T20:44:21.331Z,17.90
2023-05-06T20:49:23.333Z,17.50
2023-05-06T20:54:25.064Z,17.70
2023-05-06T20:59:29.516Z,17.00
2023-05-06T21:04:31.611Z,17.30
2023-05-06T21:09:34.922Z,17.10
2023-05-06T21:15:00.697Z,18.20
2023-05-06T21:20:04.069Z,18.80
2023-05-06T21:25:07.608Z,19.00
2023-05-06T21:30:10.438Z,16.70
2023-05-06T21:35:18.587Z,18.00
2023-05-06T21:40:21.193Z,16.40
2023-05-06T21:45:24.041Z,14.70
2023-05-06T21:50:27.270Z,15.50
2023-05-06T21:55:29.231Z,14.60
2023-05-06T22:00:30.918Z,15.00
2023-05-06T22:05:32.569Z,15.50
2023-05-06T22:10:34.386Z,15.30
2023-05-06T22:15:36.148Z,15.40
2023-05-06T22:20:37.842Z,16.00
2023-05-06T22:25:39.502Z,15.80
2023-05-06T22:30:41.325Z,14.70
2023-05-06T22:35:43.025Z,16.10
2023-05-06T22:40:44.703Z,16.20
2023-05-06T22:45:46.662Z,16.00
2023-05-06T22:50:48.341Z,17.80
2023-05-06T22:55:50.224Z,16.90
2023-05-06T23:00:52.183Z,17.50
2023-05-06T23:05:54.303Z,16.50
2023-05-06T23:10:58.921Z,16.30
2023-05-06T23:16:02.644Z,16.30
2023-05-06T23:21:04.578Z,17.60
2023-05-06T23:26:06.780Z,17.10
2023-05-06T23:31:08.462Z,16.90
2023-05-06T23:36:10.432Z,17.60
2023-05-06T23:41:13.527Z,13.60
2023-05-06T23:46:17.784Z,12.20
2023-05-06T23:51:20.844Z,12.30
2023-05-06T23:56:22.933Z,12.50
